Terminal Aerodrome Forecast
Issued by NWS

Home | Current Version | Previous Version | Text Only | Print | Product List | Glossary On
Versions: 1 2 3 4 5 6 7 8 9 10 11 12 13 14 15 16 17 18 19 20 21 22 23 24 25 26 27 28 29 30 31 32 33 34 35 36 37 38 39 40 41 42 43
000
FTUS44 KLIX 251724
TAFHDC
TAF
KHDC 251724Z 2518/2618 21005KT P6SM VCTS SCT020CB BKN080
      TEMPO 2518/2521 VRB20G30KT 1SM TSRA OVC015CB
     FM260000 24005KT P6SM BKN250
     FM260900 VRB03KT P6SM BKN015
     FM261500 VRB03KT P6SM SCT020=

USA.gov is the U.S. government's official web portal to all federal, state and local government web resources and services.